Погода Терана неделю

Тиллабери, Нигер

20 - 26 июня
  • 20июня
    Сегодня
    +29°
    +40°
    Ясно и безоблачно
    ВремяПогодаТемператураВлажностьДавлениеВетер, м/сВероятность осадков
    01:00Ясно и безоблачно+31°C57 %738 мм5.6 м/с2 %
    04:00Ясно и безоблачно+30°C64 %737 мм5.0 м/с2 %
    07:00Ясно и безоблачно+30°C64 %738 мм5.2 м/с2 %
    10:00Ясно и безоблачно+33°C46 %738 мм5.7 м/с2 %
    13:00Ясно и безоблачно+38°C32 %738 мм3.4 м/с2 %
    16:00Практически безоблачно+36°C33 %736 мм3.5 м/с2 %
    19:00Ясно и безоблачно+38°C30 %736 мм0.6 м/с1 %
    22:00Ясно и безоблачно+35°C32 %738 мм0.6 м/с1 %
  • 21июня
    Пятница
    +26°
    +39°
    Ясно и безоблачно
    ВремяПогодаТемператураВлажностьДавлениеВетер, м/сВероятность осадков
    01:00Практически безоблачно+33°C41 %738 мм3.3 м/с3 %
    04:00Ясно и безоблачно+31°C55 %738 мм4.9 м/с2 %
    07:00Ясно и безоблачно+30°C62 %739 мм4.9 м/с3 %
    10:00Ясно и безоблачно+32°C48 %739 мм5.0 м/с1 %
    13:00Ясно и безоблачно+36°C34 %738 мм3.8 м/с2 %
    16:00Ясно и безоблачно+38°C28 %737 мм2.3 м/с6 %
    19:00Практически безоблачно+38°C30 %737 мм2.4 м/с4 %
    22:00Ясно и безоблачно+32°C47 %739 мм4.7 м/с2 %
  • 22июня
    Суббота
    +29°
    +37°
    Облачно с прояснениями
    ВремяПогодаТемператураВлажностьДавлениеВетер, м/сВероятность осадков
    01:00Ясно и безоблачно+30°C58 %738 мм3.7 м/с5 %
    04:00Облачно с прояснениями+31°C62 %738 мм1.7 м/с9 %
    07:00Облачно с прояснениями+28°C82 %739 мм5.8 м/с19 %
    10:00Облачно с прояснениями+30°C62 %739 мм5.4 м/с4 %
    13:00Облачно с прояснениями+35°C42 %739 мм4.6 м/с2 %
    16:00Облачно с прояснениями+36°C38 %737 мм4.1 м/с4 %
    19:00Практически безоблачно+35°C45 %736 мм4.4 м/с4 %
    22:00Практически безоблачно+32°C57 %738 мм3.7 м/с3 %
  • 23июня
    Воскресенье
    +29°
    +38°
    Ясно и безоблачно
    ВремяПогодаТемператураВлажностьДавлениеВетер, м/сВероятность осадков
    01:00Ясно и безоблачно+31°C59 %738 мм4.3 м/с10 %
    04:00Ясно и безоблачно+30°C61 %738 мм2.6 м/с15 %
    07:00Ясно и безоблачно+29°C69 %738 мм5.0 м/с7 %
    10:00Ясно и безоблачно+32°C54 %738 мм6.5 м/с2 %
    13:00Ясно и безоблачно+36°C39 %737 мм5.7 м/с2 %
    16:00Ясно и безоблачно+38°C35 %736 мм4.1 м/с10 %
    19:00Небольшая облачность, возможен дождь с грозой+36°C45 %736 мм3.2 м/с14 %
    22:00Ясно и безоблачно+33°C56 %738 мм2.6 м/с4 %
  • 24июня
    Понедельник
    +28°
    +39°
    Ясно и безоблачно
    ВремяПогодаТемператураВлажностьДавлениеВетер, м/сВероятность осадков
    01:00Ясно и безоблачно+32°C60 %737 мм3.9 м/с6 %
    04:00Ясно и безоблачно+30°C63 %737 мм4.9 м/с14 %
    07:00Небольшая облачность+30°C64 %738 мм5.1 м/с8 %
    10:00Ясно и безоблачно+32°C50 %738 мм6.8 м/с4 %
    13:00Ясно и безоблачно+36°C39 %737 мм5.7 м/с2 %
    16:00Облачно с прояснениями+38°C33 %735 мм2.6 м/с19 %
    19:00Облачно с прояснениями+37°C41 %735 мм3.7 м/с10 %
    22:00Облачно с прояснениями+34°C52 %738 мм3.8 м/с13 %
Мы используем cookies
Соглашаюсь